Time,TemperatureF,DewpointF,PressureIn,WindDirection,WindDirectionDegrees,WindSpeedMPH,WindSpeedGustMPH,Humidity,HourlyPrecipIn,Conditions,Clouds,dailyrainin,SoftwareType,DateUTC
2013-08-15 00:02:00,72.0,64.0,30.14,SSE,155,0.0,7.0,76,0.00,,,0.00,,2013-08-15 05:02:00,
2013-08-15 00:12:00,72.0,64.0,30.14,SSE,155,0.0,7.0,76,0.00,,,0.00,,2013-08-15 05:12:00,
2013-08-15 00:22:00,72.0,64.0,30.14,SSE,155,0.0,7.0,76,0.00,,,0.00,,2013-08-15 05:22:00,
2013-08-15 00:52:00,70.0,63.0,30.14,SE,131,2.0,8.0,79,0.00,,,0.00,,2013-08-15 05:52:00,
2013-08-15 01:02:00,70.0,63.0,30.14,SE,131,2.0,8.0,79,0.00,,,0.00,,2013-08-15 06:02:00,
2013-08-15 01:21:00,70.0,64.0,30.14,SE,124,9.0,9.0,80,0.00,,,0.00,,2013-08-15 06:21:00,
2013-08-15 01:52:00,69.0,63.0,30.14,SW,217,3.0,8.0,81,0.00,,,0.00,,2013-08-15 06:52:00,
2013-08-15 02:21:00,69.0,63.0,30.14,SE,143,0.0,7.0,81,0.00,,,0.00,,2013-08-15 07:21:00,
2013-08-15 02:52:00,69.0,63.0,30.14,SSE,158,4.0,7.0,80,0.00,,,0.00,,2013-08-15 07:52:00,
2013-08-15 03:21:00,69.0,63.0,30.13,South,169,2.0,10.0,81,0.00,,,0.00,,2013-08-15 08:21:00,
2013-08-15 03:52:00,68.0,62.0,30.12,SSW,194,4.0,9.0,81,0.00,,,0.00,,2013-08-15 08:52:00,
2013-08-15 04:01:00,68.0,62.0,30.12,SSW,194,4.0,9.0,81,0.00,,,0.00,,2013-08-15 09:01:00,
2013-08-15 04:21:00,68.0,63.0,30.12,SE,132,4.0,7.0,83,0.00,,,0.00,,2013-08-15 09:21:00,
2013-08-15 04:33:00,68.0,63.0,30.12,SE,132,4.0,7.0,83,0.00,,,0.00,,2013-08-15 09:33:00,
2013-08-15 04:53:00,67.0,62.0,30.12,SSE,168,0.0,5.0,83,0.00,,,0.00,,2013-08-15 09:53:00,
2013-08-15 05:22:00,67.0,62.0,30.12,SSW,193,0.0,5.0,83,0.00,,,0.00,,2013-08-15 10:22:00,
2013-08-15 05:52:00,67.0,62.0,30.12,ESE,116,2.0,6.0,84,0.00,,,0.00,,2013-08-15 10:52:00,
2013-08-15 06:11:00,66.0,61.0,30.11,South,179,0.0,7.0,85,0.00,,,0.00,,2013-08-15 11:11:00,
2013-08-15 06:22:00,66.0,61.0,30.11,South,179,0.0,7.0,85,0.00,,,0.00,,2013-08-15 11:22:00,
2013-08-15 06:31:00,66.0,61.0,30.11,South,179,0.0,0.0,85,0.00,,,0.00,,2013-08-15 11:31:00,
2013-08-15 06:52:00,66.0,61.0,30.11,South,179,0.0,0.0,85,0.00,,,0.00,,2013-08-15 11:52:00,
2013-08-15 07:01:00,66.0,61.0,30.11,South,179,0.0,0.0,85,0.00,,,0.00,,2013-08-15 12:01:00,
2013-08-15 07:11:00,66.0,61.0,30.11,South,179,0.0,0.0,85,0.00,,,0.00,,2013-08-15 12:11:00,
2013-08-15 07:21:00,66.0,61.0,30.11,South,179,0.0,0.0,85,0.00,,,0.00,,2013-08-15 12:21:00,
2013-08-15 07:52:00,66.0,62.0,30.10,SSW,194,4.0,6.0,86,0.00,,,0.00,,2013-08-15 12:52:00,
2013-08-15 08:21:00,68.0,63.0,30.11,SSE,161,5.0,10.0,83,0.00,,,0.00,,2013-08-15 13:21:00,
2013-08-15 08:32:00,68.0,63.0,30.11,SSE,161,5.0,10.0,83,0.00,,,0.00,,2013-08-15 13:32:00,
2013-08-15 08:52:00,69.0,62.0,30.12,SW,231,5.0,10.0,79,0.00,,,0.00,,2013-08-15 13:52:00,
2013-08-15 09:12:00,70.0,63.0,30.12,SSW,206,3.0,9.0,78,0.00,,,0.00,,2013-08-15 14:12:00,
2013-08-15 09:22:00,70.0,63.0,30.12,SSW,206,3.0,9.0,78,0.00,,,0.00,,2013-08-15 14:22:00,
2013-08-15 09:55:00,73.0,63.0,30.12,SW,217,5.0,10.0,71,0.00,,,0.00,,2013-08-15 14:55:00,
2013-08-15 10:23:00,73.0,64.0,30.13,SE,143,0.0,11.0,73,0.00,,,0.00,,2013-08-15 15:23:00,
2013-08-15 10:54:00,74.0,65.0,30.11,SW,233,2.0,9.0,73,0.00,,,0.00,,2013-08-15 15:54:00,
2013-08-15 11:13:00,74.0,65.0,30.10,South,172,5.0,10.0,73,0.00,,,0.00,,2013-08-15 16:13:00,
2013-08-15 11:26:00,74.0,65.0,30.10,South,172,5.0,10.0,73,0.00,,,0.00,,2013-08-15 16:26:00,
2013-08-15 11:55:00,76.0,66.0,30.10,South,181,2.0,10.0,71,0.00,,,0.00,,2013-08-15 16:55:00,
2013-08-15 12:06:00,76.0,66.0,30.10,South,181,2.0,10.0,71,0.00,,,0.00,,2013-08-15 17:06:00,
2013-08-15 12:18:00,76.0,66.0,30.10,South,181,2.0,10.0,71,0.00,,,0.00,,2013-08-15 17:18:00,
2013-08-15 12:30:00,76.0,-99.9,30.10,South,181,2.0,10.0,71,0.00,,,0.00,,2013-08-15 17:30:00,
2013-08-15 12:55:00,79.0,68.0,30.08,ESE,108,3.0,9.0,68,0.00,,,0.00,,2013-08-15 17:55:00,
2013-08-15 13:00:00,-999.0,-99.9,30.08,ESE,108,3.0,9.0,-999,-99.99,,,-99.99,,2013-08-15 18:00:00,
2013-08-15 13:25:00,81.0,68.0,30.07,South,180,6.0,10.0,65,0.00,,,0.00,,2013-08-15 18:25:00,
2013-08-15 13:36:00,-999.0,-99.9,30.07,South,180,6.0,10.0,-999,0.00,,,0.00,,2013-08-15 18:36:00,
2013-08-15 14:06:00,-999.0,-99.9,30.03,South,175,7.0,13.0,-999,0.00,,,0.00,,2013-08-15 19:06:00,
2013-08-15 14:34:00,-999.0,-99.9,30.04,West,266,5.0,10.0,-999,-99.99,,,-99.99,,2013-08-15 19:34:00,
2013-08-15 15:16:00,81.0,69.0,30.02,South,170,2.0,9.0,68,0.00,,,0.00,,2013-08-15 20:16:00,
2013-08-15 15:34:00,80.0,69.0,30.01,WSW,245,3.0,7.0,69,0.00,,,0.00,,2013-08-15 20:34:00,
2013-08-15 16:06:00,81.0,69.0,30.02,South,170,2.0,9.0,68,0.00,,,0.00,,2013-08-15 21:06:00,
2013-08-15 16:57:00,83.0,70.0,29.99,South,176,2.0,13.0,64,0.00,,,0.00,,2013-08-15 21:57:00,
2013-08-15 17:29:00,76.0,70.0,29.96,NW,316,8.0,9.0,83,0.13,,,0.13,,2013-08-15 22:29:00,
2013-08-15 17:58:00,68.0,66.0,30.00,NW,316,1.0,16.0,94,0.46,,,0.46,,2013-08-15 22:58:00,
2013-08-15 18:01:00,66.0,64.0,30.02,SSE,159,2.0,6.0,92,0.33,,,0.46,,2013-08-15 23:01:00,
2013-08-15 18:35:00,-999.0,-99.9,30.02,SSE,159,2.0,6.0,92,0.33,,,0.46,,2013-08-15 23:35:00,
2013-08-15 18:40:00,66.0,64.0,30.02,SSE,159,2.0,6.0,92,0.33,,,0.46,,2013-08-15 23:40:00,
2013-08-15 18:48:00,66.0,64.0,30.02,SSE,159,2.0,6.0,92,0.33,,,0.46,,2013-08-15 23:48:00,
2013-08-15 18:55:00,66.0,64.0,30.02,SSE,159,2.0,6.0,92,0.33,,,0.46,,2013-08-15 23:55:00,
2013-08-15 19:24:00,65.0,63.0,30.01,SE,142,4.0,9.0,92,0.00,,,0.46,,2013-08-16 00:24:00,
2013-08-15 19:52:00,65.0,62.0,30.00,SSE,160,0.0,7.0,91,0.00,,,0.46,,2013-08-16 00:52:00,
2013-08-15 20:04:00,65.0,62.0,30.00,SSE,160,0.0,7.0,91,0.00,,,0.46,,2013-08-16 01:04:00,
2013-08-15 20:20:00,65.0,62.0,30.00,SSE,160,0.0,7.0,91,0.00,,,0.46,,2013-08-16 01:20:00,
2013-08-15 20:26:00,65.0,62.0,30.00,SSE,160,0.0,7.0,91,0.00,,,0.46,,2013-08-16 01:26:00,
2013-08-15 20:42:00,-999.0,-99.9,30.02,SSW,208,0.0,-999.0,-999,-99.99,,,-99.99,,2013-08-16 01:42:00,
2013-08-15 20:54:00,66.0,63.0,30.03,SW,235,0.0,1.0,89,0.00,,,0.46,,2013-08-16 01:54:00,
2013-08-15 21:21:00,66.0,63.0,30.04,South,176,0.0,1.0,91,0.00,,,0.46,,2013-08-16 02:21:00,
2013-08-15 21:43:00,65.0,63.0,30.05,SW,229,0.0,1.0,92,0.00,,,0.46,,2013-08-16 02:43:00,
2013-08-15 21:52:00,65.0,63.0,30.06,SW,229,0.0,0.0,93,0.00,,,0.46,,2013-08-16 02:52:00,
2013-08-15 22:22:00,65.0,63.0,30.08,WSW,239,0.0,1.0,94,0.00,,,0.46,,2013-08-16 03:22:00,
2013-08-15 22:33:00,65.0,63.0,30.08,WSW,239,0.0,1.0,94,0.00,,,0.46,,2013-08-16 03:33:00,
2013-08-15 22:53:00,65.0,63.0,30.08,NE,56,2.0,3.0,94,0.00,,,0.46,,2013-08-16 03:53:00,
2013-08-15 23:13:00,65.0,63.0,30.08,ENE,77,0.0,3.0,94,0.00,,,0.46,,2013-08-16 04:13:00,
2013-08-15 23:23:00,65.0,63.0,30.08,ENE,77,0.0,3.0,94,0.00,,,0.46,,2013-08-16 04:23:00,
2013-08-15 23:54:00,64.0,63.0,30.08,NE,41,0.0,1.0,95,0.00,,,0.46,,2013-08-16 04:54:00,